createdAt,value
2023-04-04T00:00:42.590Z,6.17
2023-04-04T00:03:10.539Z,6.29
2023-04-04T00:05:38.130Z,6.36
2023-04-04T00:08:05.779Z,6.53
2023-04-04T00:10:33.504Z,6.47
2023-04-04T00:13:01.255Z,6.23
2023-04-04T00:15:28.813Z,6.26
2023-04-04T00:17:57.326Z,5.94
2023-04-04T00:20:24.936Z,6.05
2023-04-04T00:22:52.357Z,5.94
2023-04-04T00:25:20.180Z,6.00
2023-04-04T00:27:48.322Z,5.87
2023-04-04T00:30:16.298Z,5.92
2023-04-04T00:32:44.105Z,5.99
2023-04-04T00:35:11.659Z,5.88
2023-04-04T00:37:39.168Z,6.02
2023-04-04T00:40:08.608Z,5.68
2023-04-04T00:42:36.026Z,5.50
2023-04-04T00:45:03.645Z,5.59
2023-04-04T00:47:31.799Z,5.49
2023-04-04T00:49:59.263Z,5.57
2023-04-04T00:52:27.269Z,5.29
2023-04-04T00:54:56.365Z,5.37
2023-04-04T00:57:24.614Z,5.21
2023-04-04T00:59:52.293Z,5.21
2023-04-04T01:02:20.302Z,4.88
2023-04-04T01:04:48.676Z,5.01
2023-04-04T01:07:16.188Z,4.87
2023-04-04T01:09:47.060Z,5.07
2023-04-04T01:12:14.570Z,4.78
2023-04-04T01:14:42.037Z,4.92
2023-04-04T01:17:09.915Z,4.81
2023-04-04T01:19:41.913Z,5.02
2023-04-04T01:22:10.143Z,4.94
2023-04-04T01:24:39.412Z,5.00
2023-04-04T01:27:07.015Z,4.77
2023-04-04T01:29:39.019Z,4.73
2023-04-04T01:32:46.361Z,4.71
2023-04-04T01:35:32.911Z,4.77
2023-04-04T01:38:06.265Z,4.67
2023-04-04T01:40:37.406Z,4.48
2023-04-04T01:43:05.476Z,4.47
2023-04-04T01:45:33.234Z,4.08
2023-04-04T01:48:01.412Z,4.00
2023-04-04T01:50:29.713Z,3.87
2023-04-04T01:52:57.113Z,3.95
2023-04-04T01:55:24.852Z,3.89
2023-04-04T01:57:52.510Z,3.62
2023-04-04T02:00:20.066Z,3.74
2023-04-04T02:02:47.417Z,3.94
2023-04-04T02:05:15.124Z,3.67
2023-04-04T02:07:42.527Z,3.83
2023-04-04T02:10:11.183Z,3.22
2023-04-04T02:12:39.999Z,3.36
2023-04-04T02:15:07.833Z,3.52
2023-04-04T02:17:35.762Z,3.38
2023-04-04T02:20:04.094Z,3.21
2023-04-04T02:22:31.797Z,3.27
2023-04-04T02:25:00.444Z,3.63
2023-04-04T02:27:27.881Z,3.51
2023-04-04T02:29:55.555Z,3.15
2023-04-04T02:32:23.776Z,3.42
2023-04-04T02:34:51.793Z,3.45
2023-04-04T02:37:19.772Z,2.85
2023-04-04T02:39:48.105Z,3.22
2023-04-04T02:42:16.180Z,3.69
2023-04-04T02:44:44.370Z,3.62
2023-04-04T02:47:13.011Z,3.57
2023-04-04T02:49:40.562Z,3.93
2023-04-04T02:52:08.911Z,3.53
2023-04-04T02:54:36.885Z,3.75
2023-04-04T02:57:07.012Z,3.81
2023-04-04T02:59:34.663Z,3.87
2023-04-04T03:02:02.263Z,3.94
2023-04-04T03:04:29.838Z,3.74
2023-04-04T03:06:58.568Z,3.93
2023-04-04T03:09:26.098Z,4.03
2023-04-04T03:11:53.502Z,4.13
2023-04-04T03:14:21.517Z,4.25
2023-04-04T03:16:50.040Z,3.92
2023-04-04T03:19:17.529Z,3.84
2023-04-04T03:21:45.534Z,3.89
2023-04-04T03:24:13.340Z,4.04
2023-04-04T03:26:40.740Z,3.90
2023-04-04T03:29:08.778Z,3.81
2023-04-04T03:31:36.437Z,3.79
2023-04-04T03:34:04.574Z,3.85
2023-04-04T03:36:32.453Z,3.58
2023-04-04T03:39:00.450Z,3.79
2023-04-04T03:41:28.008Z,3.78
2023-04-04T03:43:55.752Z,3.67
2023-04-04T03:46:25.498Z,3.68
2023-04-04T03:48:52.968Z,3.41
2023-04-04T03:51:24.828Z,3.59
2023-04-04T03:53:52.323Z,3.52
2023-04-04T03:56:19.913Z,3.62
2023-04-04T03:58:47.988Z,3.56
2023-04-04T04:01:16.909Z,3.65
2023-04-04T04:03:44.671Z,3.78
2023-04-04T04:06:12.872Z,3.56
2023-04-04T04:08:41.611Z,3.55
2023-04-04T04:11:09.348Z,3.57
2023-04-04T04:13:38.832Z,3.46
2023-04-04T04:16:06.716Z,3.37
2023-04-04T04:18:35.640Z,3.34
2023-04-04T04:21:05.102Z,3.49
2023-04-04T04:23:32.903Z,3.05
2023-04-04T04:26:00.973Z,3.29
2023-04-04T04:28:34.174Z,3.40
2023-04-04T04:31:09.902Z,3.34
2023-04-04T04:33:41.321Z,3.48
2023-04-04T04:36:09.416Z,3.28
2023-04-04T04:38:37.877Z,3.52
2023-04-04T04:41:05.506Z,3.32
2023-04-04T04:43:36.974Z,3.30
2023-04-04T04:46:04.612Z,3.28
2023-04-04T04:48:33.017Z,3.22
2023-04-04T04:51:00.834Z,3.07
2023-04-04T04:53:28.736Z,2.82
2023-04-04T04:55:56.186Z,3.41
2023-04-04T04:58:25.904Z,3.76
2023-04-04T05:00:56.855Z,3.27
2023-04-04T05:03:25.836Z,3.77
2023-04-04T05:05:53.449Z,3.63
2023-04-04T05:08:20.873Z,2.96
2023-04-04T05:10:49.972Z,2.44
2023-04-04T05:13:18.543Z,2.07
2023-04-04T05:15:47.815Z,2.35
2023-04-04T05:18:16.326Z,1.87
2023-04-04T05:20:44.139Z,1.36
2023-04-04T05:23:12.089Z,2.00
2023-04-04T05:25:40.053Z,1.97
2023-04-04T05:28:08.088Z,1.84
2023-04-04T05:30:36.454Z,1.91
2023-04-04T05:33:07.020Z,2.27
2023-04-04T05:35:34.654Z,1.97
2023-04-04T06:20:24.184Z,3.52
2023-04-04T06:22:53.210Z,3.59
2023-04-04T06:25:21.014Z,3.51
2023-04-04T06:27:48.662Z,3.61
2023-04-04T06:30:18.160Z,3.81
2023-04-04T06:32:46.466Z,3.86
2023-04-04T06:35:14.880Z,3.82
2023-04-04T06:37:43.139Z,3.99
2023-04-04T06:40:11.866Z,3.94
2023-04-04T06:42:40.162Z,3.99
2023-04-04T06:45:08.263Z,4.09
2023-04-04T06:47:35.725Z,4.46
2023-04-04T06:50:03.424Z,4.17
2023-04-04T06:52:31.161Z,3.37
2023-04-04T06:54:58.541Z,3.95
2023-04-04T06:57:25.973Z,4.22
2023-04-04T06:59:53.980Z,4.23
2023-04-04T07:02:21.419Z,3.89
2023-04-04T07:04:48.883Z,4.07
2023-04-04T07:07:16.517Z,4.25
2023-04-04T07:09:44.277Z,4.51
2023-04-04T07:12:11.737Z,4.31
2023-04-04T07:14:39.510Z,4.75
2023-04-04T07:17:17.175Z,4.57
2023-04-04T07:19:51.756Z,4.70
2023-04-04T07:22:19.175Z,4.37
2023-04-04T07:24:48.239Z,4.46
2023-04-04T07:27:15.976Z,4.39
2023-04-04T07:29:43.426Z,4.72
2023-04-04T07:32:11.017Z,4.62
2023-04-04T07:34:38.757Z,5.09
2023-04-04T07:37:06.140Z,5.44
2023-04-04T07:39:33.469Z,5.41
2023-04-04T07:42:01.410Z,4.99
2023-04-04T07:44:28.775Z,5.20
2023-04-04T07:47:08.574Z,5.26
2023-04-04T07:49:55.911Z,5.43
2023-04-04T07:52:23.281Z,5.53
2023-04-04T07:54:51.839Z,5.18
2023-04-04T07:57:19.198Z,5.29
2023-04-04T07:59:47.240Z,4.55
2023-04-04T08:02:14.944Z,5.35
2023-04-04T08:04:42.718Z,5.45
2023-04-04T08:07:10.440Z,5.55
2023-04-04T08:09:37.788Z,5.68
2023-04-04T08:12:08.696Z,5.91
2023-04-04T08:14:36.555Z,5.82
2023-04-04T08:17:03.972Z,5.80
2023-04-04T08:19:31.709Z,5.90
2023-04-04T08:21:59.086Z,5.54
2023-04-04T08:24:27.764Z,5.24
2023-04-04T08:27:04.631Z,6.00
2023-04-04T08:29:34.411Z,5.62
2023-04-04T08:32:02.168Z,6.21
2023-04-04T08:34:29.770Z,5.58
2023-04-04T08:36:57.185Z,6.07
2023-04-04T08:39:24.874Z,5.84
2023-04-04T08:42:03.035Z,6.15
2023-04-04T08:44:31.593Z,6.40
2023-04-04T08:47:05.387Z,6.39
2023-04-04T08:49:36.999Z,6.82
2023-04-04T08:52:06.369Z,6.65
2023-04-04T08:54:34.999Z,6.19
2023-04-04T08:57:02.515Z,6.37
2023-04-04T08:59:30.014Z,6.52
2023-04-04T09:02:03.169Z,6.05
2023-04-04T09:04:31.889Z,6.44
2023-04-04T09:07:02.440Z,6.53
2023-04-04T09:09:34.180Z,6.45
2023-04-04T09:12:02.376Z,6.40
2023-04-04T09:14:30.901Z,6.34
2023-04-04T09:16:59.488Z,6.69
2023-04-04T09:19:27.682Z,7.06
2023-04-04T09:21:55.091Z,7.19
2023-04-04T09:24:22.508Z,7.25
2023-04-04T09:26:52.594Z,7.19
2023-04-04T09:29:21.371Z,7.33
2023-04-04T09:31:49.664Z,7.36
2023-04-04T09:34:18.444Z,7.49
2023-04-04T09:36:46.147Z,7.36
2023-04-04T09:39:16.518Z,7.74
2023-04-04T09:41:45.504Z,7.64
2023-04-04T09:44:13.360Z,7.42
2023-04-04T09:46:41.606Z,7.89
2023-04-04T09:49:20.677Z,7.50
2023-04-04T09:51:49.597Z,7.16
2023-04-04T09:54:29.785Z,6.86
2023-04-04T09:56:58.299Z,7.66
2023-04-04T09:59:26.089Z,7.99
2023-04-04T10:01:55.100Z,7.38
2023-04-04T10:04:26.966Z,7.88
2023-04-04T10:06:55.840Z,8.34
2023-04-04T10:09:23.631Z,8.21
2023-04-04T10:11:51.022Z,8.05
2023-04-04T10:14:18.896Z,8.06
2023-04-04T10:16:46.636Z,8.41
2023-04-04T10:19:17.821Z,8.03
2023-04-04T10:21:46.104Z,8.14
2023-04-04T10:24:14.228Z,8.10
2023-04-04T10:26:41.665Z,8.48
2023-04-04T10:29:09.128Z,8.85
2023-04-04T10:31:41.030Z,8.81
2023-04-04T10:34:20.980Z,9.11
2023-04-04T10:37:10.756Z,8.74
2023-04-04T10:39:47.110Z,9.26
2023-04-04T10:42:16.100Z,8.70
2023-04-04T10:44:45.395Z,9.09
2023-04-04T10:47:14.935Z,8.77
2023-04-04T10:49:45.030Z,9.30
2023-04-04T10:52:13.917Z,9.55
2023-04-04T10:54:42.252Z,9.45
2023-04-04T10:57:10.751Z,9.26
2023-04-04T10:59:58.980Z,9.42
2023-04-04T11:02:47.318Z,9.43
2023-04-04T11:05:22.825Z,9.79
2023-04-04T11:08:08.313Z,9.72
2023-04-04T11:10:42.252Z,9.46
2023-04-04T11:13:34.598Z,9.42
2023-04-04T11:16:07.723Z,9.33
2023-04-04T11:18:41.765Z,9.60
2023-04-04T11:21:16.877Z,9.80
2023-04-04T11:23:47.612Z,9.41
2023-04-04T11:26:35.643Z,8.70
2023-04-04T11:29:04.816Z,9.05
2023-04-04T11:31:40.656Z,9.26
2023-04-04T11:34:10.521Z,9.60
2023-04-04T11:36:39.012Z,9.60
2023-04-04T11:39:06.288Z,9.61
2023-04-04T11:41:55.699Z,9.59
2023-04-04T11:44:25.339Z,9.84
2023-04-04T11:47:11.297Z,10.29
2023-04-04T11:49:42.736Z,9.96
2023-04-04T11:52:12.365Z,9.62
2023-04-04T11:54:41.813Z,9.50
2023-04-04T11:57:13.502Z,9.74
2023-04-04T11:59:43.048Z,9.87
2023-04-04T12:02:10.771Z,9.77
2023-04-04T12:04:44.532Z,10.07
2023-04-04T12:07:12.766Z,9.30
2023-04-04T12:09:40.693Z,9.64
2023-04-04T12:12:14.433Z,9.61
2023-04-04T12:14:42.554Z,9.85
2023-04-04T12:17:10.279Z,10.43
2023-04-04T12:19:38.903Z,9.94
2023-04-04T12:22:08.162Z,9.68
2023-04-04T12:24:36.112Z,9.48
2023-04-04T12:27:03.881Z,9.51
2023-04-04T12:29:36.355Z,9.94
2023-04-04T12:32:04.798Z,10.26
2023-04-04T12:34:34.049Z,10.50
2023-04-04T12:37:04.179Z,10.38
2023-04-04T12:39:32.193Z,10.51
2023-04-04T12:42:03.739Z,10.41
2023-04-04T12:44:33.063Z,10.36
2023-04-04T12:47:05.982Z,9.77
2023-04-04T12:49:44.268Z,10.41
2023-04-04T12:52:34.720Z,10.15
2023-04-04T12:55:12.812Z,10.62
2023-04-04T12:57:40.670Z,10.37
2023-04-04T13:00:09.464Z,10.34
2023-04-04T13:02:38.597Z,10.55
2023-04-04T13:05:07.561Z,10.96
2023-04-04T13:07:43.137Z,11.16
2023-04-04T13:10:14.733Z,11.02
2023-04-04T13:13:02.406Z,10.87
2023-04-04T13:15:53.028Z,10.35
2023-04-04T13:18:23.752Z,10.36
2023-04-04T13:20:52.639Z,10.84
2023-04-04T13:23:23.041Z,10.77
2023-04-04T13:25:51.376Z,11.03
2023-04-04T13:28:19.067Z,10.50
2023-04-04T13:30:49.652Z,11.00
2023-04-04T13:33:18.064Z,11.17
2023-04-04T13:35:46.612Z,11.10
2023-04-04T13:38:14.137Z,11.14
2023-04-04T13:40:41.611Z,11.03
2023-04-04T13:43:11.406Z,10.65
2023-04-04T13:45:39.249Z,11.23
2023-04-04T13:48:07.252Z,10.98
2023-04-04T13:50:36.528Z,10.28
2023-04-04T13:53:03.922Z,10.17
2023-04-04T13:55:31.303Z,10.15
2023-04-04T13:57:58.920Z,10.77
2023-04-04T14:00:26.771Z,10.46
2023-04-04T14:02:56.583Z,10.39
2023-04-04T14:05:27.217Z,10.65
2023-04-04T14:07:55.818Z,10.89
2023-04-04T14:10:23.305Z,10.69
2023-04-04T14:12:50.816Z,10.60
2023-04-04T14:15:18.677Z,9.96
2023-04-04T14:17:46.177Z,10.17
2023-04-04T14:20:13.646Z,9.84
2023-04-04T14:22:41.700Z,9.99
2023-04-04T14:25:09.352Z,10.35
2023-04-04T14:27:36.745Z,10.26
2023-04-04T14:30:04.740Z,10.57
2023-04-04T14:32:32.728Z,10.30
2023-04-04T14:35:01.289Z,10.16
2023-04-04T14:37:28.904Z,10.05
2023-04-04T14:39:56.282Z,10.08
2023-04-04T14:42:23.669Z,10.34
2023-04-04T14:44:51.451Z,10.51
2023-04-04T14:47:19.387Z,10.41
2023-04-04T14:49:46.755Z,10.70
2023-04-04T14:52:14.419Z,10.32
2023-04-04T14:54:41.788Z,10.24
2023-04-04T14:57:09.181Z,10.21
2023-04-04T14:59:36.854Z,10.05
2023-04-04T15:02:04.216Z,10.01
2023-04-04T15:04:31.937Z,10.29
2023-04-04T15:07:03.180Z,10.27
2023-04-04T15:09:30.842Z,10.39
2023-04-04T15:11:58.910Z,10.34
2023-04-04T15:14:26.594Z,10.39
2023-04-04T15:16:54.449Z,10.29
2023-04-04T15:19:21.912Z,10.50
2023-04-04T15:21:49.636Z,10.51
2023-04-04T15:24:17.000Z,10.71
2023-04-04T15:26:44.470Z,10.75
2023-04-04T15:29:12.117Z,10.52
2023-04-04T15:31:39.497Z,10.55
2023-04-04T15:34:06.880Z,10.85
2023-04-04T15:36:35.798Z,10.34
2023-04-04T15:39:04.045Z,10.51
2023-04-04T15:41:31.546Z,10.60
2023-04-04T15:43:59.222Z,10.50
2023-04-04T15:46:28.437Z,10.69
2023-04-04T15:48:56.337Z,10.50
2023-04-04T15:51:27.586Z,10.70
2023-04-04T15:53:58.041Z,10.86
2023-04-04T15:56:25.719Z,10.30
2023-04-04T15:58:53.116Z,10.38
2023-04-04T16:01:20.530Z,10.56
2023-04-04T16:03:48.445Z,10.63
2023-04-04T16:06:16.144Z,10.75
2023-04-04T16:08:43.750Z,10.73
2023-04-04T16:11:11.732Z,10.73
2023-04-04T16:13:39.222Z,10.90
2023-04-04T16:16:06.794Z,10.59
2023-04-04T16:18:34.505Z,10.70
2023-04-04T16:21:03.384Z,10.62
2023-04-04T16:23:31.952Z,10.64
2023-04-04T16:25:59.796Z,10.68
2023-04-04T16:28:27.422Z,10.69
2023-04-04T16:30:54.782Z,10.63
2023-04-04T16:33:24.151Z,10.20
2023-04-04T16:35:51.629Z,10.51
2023-04-04T16:38:19.028Z,10.67
2023-04-04T16:40:46.866Z,10.85
2023-04-04T16:43:14.253Z,10.82
2023-04-04T16:45:41.760Z,10.88
2023-04-04T16:48:10.531Z,10.41
2023-04-04T16:50:38.196Z,9.61
2023-04-04T16:53:06.173Z,8.89
2023-04-04T16:55:33.907Z,8.91
2023-04-04T16:58:01.270Z,8.69
2023-04-04T17:00:29.105Z,8.51
2023-04-04T17:02:58.211Z,8.07
2023-04-04T17:05:25.848Z,8.22
2023-04-04T17:07:53.232Z,8.14
2023-04-04T17:10:21.022Z,7.66
2023-04-04T17:12:48.537Z,7.62
2023-04-04T17:15:17.928Z,7.88
2023-04-04T17:17:46.160Z,7.89
2023-04-04T17:20:17.757Z,8.03
2023-04-04T17:22:47.455Z,7.57
2023-04-04T17:25:14.899Z,7.71
2023-04-04T17:27:42.719Z,7.85
2023-04-04T17:30:11.585Z,7.98
2023-04-04T17:32:39.509Z,7.63
2023-04-04T17:35:07.323Z,7.95
2023-04-04T17:37:35.200Z,8.01
2023-04-04T17:40:05.910Z,7.82
2023-04-04T17:42:33.457Z,8.04
2023-04-04T17:45:01.653Z,8.43
2023-04-04T17:47:29.266Z,8.63
2023-04-04T17:49:57.393Z,8.49
2023-04-04T17:52:26.001Z,8.28
2023-04-04T17:54:53.776Z,8.28
2023-04-04T17:57:22.296Z,8.17
2023-04-04T17:59:50.005Z,8.27
2023-04-04T18:02:19.058Z,8.41
2023-04-04T18:04:47.609Z,8.59
2023-04-04T18:07:16.917Z,8.41
2023-04-04T18:09:44.562Z,8.57
2023-04-04T18:12:12.856Z,8.64
2023-04-04T18:14:40.956Z,8.39
2023-04-04T18:17:09.041Z,8.52
2023-04-04T18:19:38.919Z,8.69
2023-04-04T18:22:06.479Z,8.20
2023-04-04T18:24:34.409Z,8.41
2023-04-04T18:27:03.513Z,8.36
2023-04-04T18:29:32.610Z,7.72
2023-04-04T18:32:01.909Z,7.55
2023-04-04T18:34:31.388Z,7.83
2023-04-04T18:36:58.857Z,7.93
2023-04-04T18:39:26.770Z,8.21
2023-04-04T18:41:55.282Z,8.11
2023-04-04T18:44:24.638Z,7.88
2023-04-04T18:46:52.686Z,7.75
2023-04-04T18:49:20.351Z,7.39
2023-04-04T18:51:48.213Z,7.67
2023-04-04T18:54:16.052Z,7.43
2023-04-04T18:56:44.376Z,7.14
2023-04-04T18:59:12.073Z,7.34
2023-04-04T19:01:42.454Z,7.69
2023-04-04T19:04:11.365Z,7.92
2023-04-04T19:06:39.445Z,7.43
2023-04-04T19:09:08.143Z,6.64
2023-04-04T19:11:37.061Z,6.90
2023-04-04T19:14:06.626Z,6.65
2023-04-04T19:16:37.770Z,6.59
2023-04-04T19:19:05.993Z,6.98
2023-04-04T19:21:33.856Z,6.48
2023-04-04T19:24:02.571Z,6.68
2023-04-04T19:26:32.586Z,6.02
2023-04-04T19:29:01.692Z,6.07
2023-04-04T19:31:35.809Z,6.37
2023-04-04T19:34:09.962Z,6.38
2023-04-04T19:36:39.051Z,6.12
2023-04-04T19:39:10.224Z,6.19
2023-04-04T19:41:40.096Z,5.73
2023-04-04T19:44:20.427Z,5.51
2023-04-04T19:46:48.418Z,5.69
2023-04-04T19:49:19.367Z,6.08
2023-04-04T19:51:54.083Z,5.56
2023-04-04T19:54:30.545Z,5.85
2023-04-04T19:57:01.265Z,5.80
2023-04-04T19:59:53.645Z,5.58
2023-04-04T20:02:27.949Z,5.76
2023-04-04T20:04:56.284Z,5.79
2023-04-04T20:07:24.625Z,5.57
2023-04-04T20:09:52.749Z,5.88
2023-04-04T20:12:22.984Z,5.58
2023-04-04T20:14:55.698Z,5.84
2023-04-04T20:17:24.794Z,5.81
2023-04-04T20:19:53.521Z,6.00
2023-04-04T20:22:23.083Z,5.74
2023-04-04T20:24:52.087Z,5.81
2023-04-04T20:27:24.093Z,5.35
2023-04-04T20:29:53.426Z,5.29
2023-04-04T20:32:21.454Z,5.26
2023-04-04T20:34:50.480Z,5.47
2023-04-04T20:37:23.745Z,5.52
2023-04-04T20:39:54.779Z,5.13
2023-04-04T20:42:34.151Z,4.80
2023-04-04T20:45:14.120Z,5.16
2023-04-04T20:47:47.624Z,5.06
2023-04-04T20:50:20.843Z,5.02
2023-04-04T20:52:58.906Z,5.57
2023-04-04T20:55:28.600Z,5.84
2023-04-04T20:58:26.659Z,5.81
2023-04-04T21:00:54.429Z,5.29
2023-04-04T21:03:32.412Z,5.59
2023-04-04T21:06:12.898Z,5.14
2023-04-04T21:08:47.501Z,4.66
2023-04-04T21:11:23.197Z,5.15
2023-04-04T21:13:50.850Z,5.06
2023-04-04T21:16:19.224Z,5.08
2023-04-04T21:18:47.097Z,5.09
2023-04-04T21:21:20.939Z,4.97
2023-04-04T21:23:49.652Z,5.00
2023-04-04T21:26:28.932Z,4.21
2023-04-04T21:28:57.881Z,4.69
2023-04-04T21:31:28.723Z,4.44
2023-04-04T21:33:58.166Z,4.57
2023-04-04T21:36:28.718Z,4.44
2023-04-04T21:39:00.982Z,4.26
2023-04-04T21:41:31.161Z,4.45
2023-04-04T21:44:00.738Z,4.56
2023-04-04T21:46:32.821Z,4.58
2023-04-04T21:49:00.947Z,4.52
2023-04-04T21:51:28.346Z,4.52
2023-04-04T21:53:56.286Z,4.34
2023-04-04T21:56:32.886Z,4.35
2023-04-04T21:59:02.168Z,4.37
2023-04-04T22:01:33.300Z,5.09
2023-04-04T22:04:01.320Z,4.82
2023-04-04T22:06:28.973Z,4.57
2023-04-04T22:08:57.282Z,4.75
2023-04-04T22:11:26.129Z,4.97
2023-04-04T22:14:03.227Z,4.50
2023-04-04T22:16:31.971Z,4.22
2023-04-04T22:19:01.259Z,4.25
2023-04-04T22:21:28.935Z,4.60
2023-04-04T22:24:00.947Z,4.84
2023-04-04T22:26:34.793Z,4.53
2023-04-04T22:29:03.980Z,4.20
2023-04-04T22:31:34.258Z,4.46
2023-04-04T22:34:04.089Z,4.96
2023-04-04T22:36:31.458Z,5.29
2023-04-04T22:38:58.994Z,5.50
2023-04-04T22:41:28.296Z,5.85
2023-04-04T22:43:57.341Z,5.81
2023-04-04T22:46:29.409Z,5.68
2023-04-04T22:49:05.641Z,5.52
2023-04-04T22:51:35.173Z,5.57
2023-04-04T22:54:03.283Z,5.61
2023-04-04T22:56:31.123Z,5.49
2023-04-04T22:58:58.537Z,5.45
2023-04-04T23:01:26.329Z,5.41
2023-04-04T23:03:53.749Z,5.53
2023-04-04T23:06:21.126Z,5.48
2023-04-04T23:08:48.810Z,5.35
2023-04-04T23:11:16.169Z,5.64
2023-04-04T23:13:43.674Z,5.40
2023-04-04T23:16:11.346Z,5.37
2023-04-04T23:18:38.800Z,5.41
2023-04-04T23:21:07.317Z,5.14
2023-04-04T23:23:34.974Z,5.52
2023-04-04T23:26:02.935Z,5.46
2023-04-04T23:28:32.596Z,5.27
2023-04-04T23:31:00.527Z,4.94
2023-04-04T23:33:27.966Z,5.14
2023-04-04T23:35:55.591Z,5.21
2023-04-04T23:38:23.385Z,5.17
2023-04-04T23:40:51.137Z,5.20
2023-04-04T23:43:18.573Z,5.19
2023-04-04T23:45:46.245Z,5.17
2023-04-04T23:48:13.604Z,5.09
2023-04-04T23:50:41.583Z,5.28
2023-04-04T23:53:09.445Z,5.18
2023-04-04T23:55:37.011Z,4.96
2023-04-04T23:58:05.367Z,5.02
